createdAt,value
2022-11-21T00:00:11.125Z,1008.2
2022-11-21T00:01:11.155Z,1008.19
2022-11-21T00:02:11.231Z,1008.16
2022-11-21T00:03:11.140Z,1008.12
2022-11-21T00:04:11.183Z,1008.04
2022-11-21T00:05:11.117Z,1008.23
2022-11-21T00:06:11.215Z,1008.2
2022-11-21T00:07:11.186Z,1008.16
2022-11-21T00:08:11.129Z,1008
2022-11-21T00:09:11.133Z,1008.03
2022-11-21T00:10:11.140Z,1008.08
2022-11-21T00:11:11.127Z,1008.07
2022-11-21T00:12:11.161Z,1008.1
2022-11-21T00:13:11.135Z,1008.03
2022-11-21T00:14:11.129Z,1007.98
2022-11-21T00:15:11.146Z,1007.94
2022-11-21T00:16:11.124Z,1007.96
2022-11-21T00:17:11.148Z,1007.95
2022-11-21T00:18:11.126Z,1008.02
2022-11-21T00:19:11.138Z,1007.95
2022-11-21T00:20:11.143Z,1007.99
2022-11-21T00:21:11.128Z,1007.98
2022-11-21T00:22:11.144Z,1008.02
2022-11-21T00:23:11.118Z,1007.96
2022-11-21T00:24:11.136Z,1008.02
2022-11-21T00:25:11.128Z,1007.94
2022-11-21T00:26:11.151Z,1007.89
2022-11-21T00:27:11.157Z,1007.98
2022-11-21T00:28:11.133Z,1007.91
2022-11-21T00:29:11.134Z,1007.84
2022-11-21T00:30:11.116Z,1007.88
2022-11-21T00:31:11.215Z,1007.86
2022-11-21T00:32:11.146Z,1007.89
2022-11-21T00:33:11.135Z,1007.76
2022-11-21T00:34:11.164Z,1007.79
2022-11-21T00:35:11.130Z,1007.79
2022-11-21T00:36:11.145Z,1007.83
2022-11-21T00:37:11.234Z,1007.76
2022-11-21T00:38:11.141Z,1007.72
2022-11-21T00:39:11.137Z,1007.69
2022-11-21T00:40:11.131Z,1007.61
2022-11-21T00:41:11.130Z,1007.7
2022-11-21T00:42:11.146Z,1007.65
2022-11-21T00:43:11.143Z,1007.58
2022-11-21T00:44:11.137Z,1007.54
2022-11-21T00:45:11.163Z,1007.48
2022-11-21T00:46:11.131Z,1007.54
2022-11-21T00:47:11.158Z,1007.43
2022-11-21T00:48:11.132Z,1007.64
2022-11-21T00:49:11.135Z,1007.46
2022-11-21T00:50:11.160Z,1007.48
2022-11-21T00:51:11.132Z,1007.5
2022-11-21T00:52:11.309Z,1007.5
2022-11-21T00:53:11.130Z,1007.47
2022-11-21T00:54:11.140Z,1007.45
2022-11-21T00:55:11.135Z,1007.5
2022-11-21T00:56:11.130Z,1007.38
2022-11-21T00:57:11.147Z,1007.47
2022-11-21T00:58:11.129Z,1007.46
2022-11-21T00:59:11.131Z,1007.53
2022-11-21T01:00:11.133Z,1007.42
2022-11-21T01:01:11.250Z,1007.35
2022-11-21T01:02:11.151Z,1007.3
2022-11-21T01:03:11.132Z,1007.49
2022-11-21T01:04:11.136Z,1007.4
2022-11-21T01:05:11.145Z,1007.36
2022-11-21T01:06:11.140Z,1007.27
2022-11-21T01:07:11.185Z,1007.33
2022-11-21T01:08:11.181Z,1007.36
2022-11-21T01:09:11.135Z,1007.32
2022-11-21T01:10:11.148Z,1007.27
2022-11-21T01:11:11.122Z,1007.23
2022-11-21T01:12:11.145Z,1007.23
2022-11-21T01:13:11.125Z,1007.25
2022-11-21T01:14:11.122Z,1007.33
2022-11-21T01:15:11.139Z,1007.05
2022-11-21T01:16:11.133Z,1007.05
2022-11-21T01:17:11.141Z,1007.03
2022-11-21T01:18:11.119Z,1006.99
2022-11-21T01:19:11.149Z,1006.99
2022-11-21T01:20:11.141Z,1007.04
2022-11-21T01:21:11.134Z,1007
2022-11-21T01:22:11.144Z,1007
2022-11-21T01:23:11.134Z,1007.02
2022-11-21T01:24:11.126Z,1007.01
2022-11-21T01:25:11.118Z,1007.02
2022-11-21T01:26:11.128Z,1006.87
2022-11-21T01:27:11.150Z,1006.94
2022-11-21T01:28:11.125Z,1007.01
2022-11-21T01:29:11.141Z,1006.95
2022-11-21T01:30:11.121Z,1006.83
2022-11-21T01:31:11.147Z,1006.92
2022-11-21T01:32:11.141Z,1006.93
2022-11-21T01:33:11.131Z,1006.92
2022-11-21T01:34:11.134Z,1006.9
2022-11-21T01:35:11.140Z,1006.78
2022-11-21T01:36:11.142Z,1006.73
2022-11-21T01:37:11.148Z,1006.75
2022-11-21T01:38:11.135Z,1006.72
2022-11-21T01:39:11.141Z,1006.68
2022-11-21T01:40:11.138Z,1006.64
2022-11-21T01:41:11.169Z,1006.74
2022-11-21T01:42:11.147Z,1006.67
2022-11-21T01:43:11.142Z,1006.76
2022-11-21T01:44:11.134Z,1006.7
2022-11-21T01:45:11.149Z,1006.61
2022-11-21T01:46:11.134Z,1006.7
2022-11-21T01:47:11.147Z,1006.76
2022-11-21T01:48:11.125Z,1006.62
2022-11-21T01:49:11.130Z,1006.63
2022-11-21T01:50:13.121Z,1006.52
2022-11-21T01:51:11.163Z,1006.52
2022-11-21T01:52:11.148Z,1006.47
2022-11-21T01:53:11.132Z,1006.45
2022-11-21T01:54:11.138Z,1006.43
2022-11-21T01:55:11.137Z,1006.42
2022-11-21T01:56:11.133Z,1006.4
2022-11-21T01:57:11.137Z,1006.34
2022-11-21T01:58:11.143Z,1006.34
2022-11-21T01:59:11.138Z,1006.56
2022-11-21T02:00:11.123Z,1006.32
2022-11-21T02:01:11.193Z,1006.24
2022-11-21T02:02:11.153Z,1006.47
2022-11-21T02:03:11.129Z,1006.31
2022-11-21T02:04:11.145Z,1006.25
2022-11-21T02:05:11.135Z,1006.18
2022-11-21T02:06:11.145Z,1006.55
2022-11-21T02:07:11.215Z,1006.03
2022-11-21T02:08:11.133Z,1006.07
2022-11-21T02:09:11.133Z,1006.07
2022-11-21T02:10:11.147Z,1006.22
2022-11-21T02:11:11.138Z,1006.12
2022-11-21T02:12:11.149Z,1006.06
2022-11-21T02:13:11.142Z,1006.08
2022-11-21T02:14:11.141Z,1006.21
2022-11-21T02:15:11.135Z,1006.12
2022-11-21T02:16:11.143Z,1006.13
2022-11-21T02:17:11.164Z,1006.11
2022-11-21T02:18:11.134Z,1006.13
2022-11-21T02:19:11.148Z,1006.11
2022-11-21T02:20:11.133Z,1006.15
2022-11-21T02:21:11.117Z,1006.15
2022-11-21T02:22:11.150Z,1006.29
2022-11-21T02:23:11.116Z,1006.07
2022-11-21T02:24:11.119Z,1006.21
2022-11-21T02:25:11.139Z,1006.13
2022-11-21T02:26:11.139Z,1006.03
2022-11-21T02:27:11.142Z,1006.11
2022-11-21T02:28:11.140Z,1006.07
2022-11-21T02:29:11.127Z,1006
2022-11-21T02:30:11.118Z,1006.06
2022-11-21T02:31:11.139Z,1006.1
2022-11-21T02:32:11.146Z,1006
2022-11-21T02:33:11.130Z,1006.04
2022-11-21T02:34:11.114Z,1005.86
2022-11-21T02:35:11.129Z,1005.78
2022-11-21T02:36:11.121Z,1005.75
2022-11-21T02:37:11.132Z,1005.77
2022-11-21T02:38:11.126Z,1005.67
2022-11-21T02:39:11.130Z,1005.7
2022-11-21T02:40:11.135Z,1005.57
2022-11-21T02:41:11.132Z,1005.67
2022-11-21T02:42:11.148Z,1005.75
2022-11-21T02:43:11.149Z,1005.55
2022-11-21T02:44:11.136Z,1005.51
2022-11-21T02:45:11.141Z,1005.61
2022-11-21T02:46:11.156Z,1005.51
2022-11-21T02:47:11.148Z,1005.44
2022-11-21T02:48:11.123Z,1005.42
2022-11-21T02:49:11.145Z,1005.53
2022-11-21T02:50:11.126Z,1005.53
2022-11-21T02:51:11.130Z,1005.52
2022-11-21T02:52:11.154Z,1005.46
2022-11-21T02:53:11.133Z,1005.54
2022-11-21T02:54:11.149Z,1005.58
2022-11-21T02:55:11.137Z,1005.54
2022-11-21T02:56:11.143Z,1005.55
2022-11-21T02:57:11.143Z,1005.66
2022-11-21T02:58:11.140Z,1005.38
2022-11-21T02:59:11.145Z,1005.43
2022-11-21T03:00:11.126Z,1005.79
2022-11-21T03:01:11.165Z,1005.52
2022-11-21T03:02:11.147Z,1005.46
2022-11-21T03:03:11.126Z,1005.36
2022-11-21T03:04:11.137Z,1005.5
2022-11-21T03:05:11.128Z,1005.39
2022-11-21T03:06:11.144Z,1005.38
2022-11-21T03:07:11.174Z,1005.36
2022-11-21T03:08:11.144Z,1005.27
2022-11-21T03:09:11.128Z,1005.27
2022-11-21T03:10:11.120Z,1005.32
2022-11-21T03:11:11.136Z,1005.21
2022-11-21T03:12:11.140Z,1005.22
2022-11-21T03:13:11.148Z,1005.23
2022-11-21T03:14:11.128Z,1005.17
2022-11-21T03:15:11.128Z,1005.27
2022-11-21T03:16:11.131Z,1005.17
2022-11-21T03:17:11.145Z,1005.14
2022-11-21T03:18:11.159Z,1005.11
2022-11-21T03:19:11.126Z,1005.37
2022-11-21T03:20:11.128Z,1005.13
2022-11-21T03:21:11.123Z,1005.29
2022-11-21T03:22:11.144Z,1005.11
2022-11-21T03:23:11.132Z,1005.22
2022-11-21T03:24:11.130Z,1005.21
2022-11-21T03:25:11.125Z,1005.16
2022-11-21T03:26:11.138Z,1005.07
2022-11-21T03:27:11.144Z,1005.05
2022-11-21T03:28:11.117Z,1005.31
2022-11-21T03:29:11.134Z,1005.08
2022-11-21T03:30:11.129Z,1005.25
2022-11-21T03:31:11.137Z,1005.25
2022-11-21T03:32:11.144Z,1005.03
2022-11-21T03:33:11.128Z,1005.11
2022-11-21T03:34:11.128Z,1005.22
2022-11-21T03:35:11.131Z,1005.05
2022-11-21T03:36:11.128Z,1005.16
2022-11-21T03:37:11.135Z,1005.16
2022-11-21T03:38:11.139Z,1005.08
2022-11-21T03:39:11.115Z,1005.27
2022-11-21T03:40:11.130Z,1005.1
2022-11-21T03:41:11.134Z,1005.07
2022-11-21T03:42:11.125Z,1004.97
2022-11-21T03:43:11.117Z,1004.91
2022-11-21T03:44:11.112Z,1005.01
2022-11-21T03:45:11.122Z,1004.89
2022-11-21T03:46:11.121Z,1004.99
2022-11-21T03:47:11.146Z,1005
2022-11-21T03:48:11.131Z,1004.91
2022-11-21T03:49:11.125Z,1004.91
2022-11-21T03:50:11.128Z,1004.86
2022-11-21T03:51:11.110Z,1004.93
2022-11-21T03:52:11.157Z,1004.75
2022-11-21T03:53:11.128Z,1004.81
2022-11-21T03:54:11.130Z,1004.91
2022-11-21T03:55:11.136Z,1004.93
2022-11-21T03:56:11.132Z,1005.05
2022-11-21T03:57:11.145Z,1004.82
2022-11-21T03:58:11.121Z,1004.81
2022-11-21T03:59:11.133Z,1004.79
2022-11-21T04:00:11.133Z,1004.84
2022-11-21T04:01:11.180Z,1004.98
2022-11-21T04:02:11.139Z,1004.87
2022-11-21T04:03:11.115Z,1004.86
2022-11-21T04:04:11.128Z,1004.8
2022-11-21T04:05:11.136Z,1004.85
2022-11-21T04:06:11.137Z,1004.74
2022-11-21T04:07:11.176Z,1004.98
2022-11-21T04:08:11.124Z,1004.72
2022-11-21T04:09:11.125Z,1004.72
2022-11-21T04:10:11.140Z,1004.93
2022-11-21T04:11:11.135Z,1004.76
2022-11-21T04:12:11.146Z,1004.78
2022-11-21T04:13:11.151Z,1004.86
2022-11-21T04:14:11.132Z,1004.82
2022-11-21T04:15:13.973Z,1004.68
2022-11-21T04:16:11.132Z,1004.73
2022-11-21T04:17:11.142Z,1004.88
2022-11-21T04:18:11.124Z,1004.83
2022-11-21T04:19:11.152Z,1004.85
2022-11-21T04:20:11.132Z,1004.76
2022-11-21T04:21:11.130Z,1004.81
2022-11-21T04:22:11.148Z,1004.84
2022-11-21T04:23:11.125Z,1004.75
2022-11-21T04:24:11.135Z,1004.77
2022-11-21T04:25:11.148Z,1004.69
2022-11-21T04:26:11.129Z,1004.69
2022-11-21T04:27:11.145Z,1004.67
2022-11-21T04:28:11.130Z,1004.65
2022-11-21T04:29:11.131Z,1004.59
2022-11-21T04:30:11.121Z,1004.74
2022-11-21T04:31:11.606Z,1004.58
2022-11-21T04:32:11.141Z,1004.58
2022-11-21T04:33:11.146Z,1004.52
2022-11-21T04:34:11.126Z,1004.6
2022-11-21T04:35:11.147Z,1004.64
2022-11-21T04:36:11.151Z,1004.6
2022-11-21T04:37:11.899Z,1004.61
2022-11-21T04:38:11.142Z,1004.66
2022-11-21T04:39:11.132Z,1004.59
2022-11-21T04:40:11.142Z,1004.73
2022-11-21T04:41:11.133Z,1004.76
2022-11-21T04:42:11.144Z,1004.68
2022-11-21T04:43:11.151Z,1004.64
2022-11-21T04:44:11.127Z,1004.65
2022-11-21T04:45:11.139Z,1004.68
2022-11-21T04:46:11.127Z,1004.62
2022-11-21T04:47:11.144Z,1004.7
2022-11-21T04:48:11.194Z,1004.66
2022-11-21T04:49:11.136Z,1004.6
2022-11-21T04:50:11.129Z,1004.6
2022-11-21T04:51:11.131Z,1004.64
2022-11-21T04:52:11.288Z,1004.6
2022-11-21T04:53:11.127Z,1004.64
2022-11-21T04:54:11.140Z,1004.64
2022-11-21T04:55:11.146Z,1004.61
2022-11-21T04:56:11.128Z,1004.52
2022-11-21T04:57:11.159Z,1004.38
2022-11-21T04:58:11.119Z,1004.44
2022-11-21T04:59:11.134Z,1004.43
2022-11-21T05:00:11.137Z,1004.43
2022-11-21T05:01:11.172Z,1004.45
2022-11-21T05:02:11.145Z,1004.46
2022-11-21T05:03:11.148Z,1004.4
2022-11-21T05:04:11.127Z,1004.49
2022-11-21T05:05:11.138Z,1004.52
2022-11-21T05:06:11.127Z,1004.5
2022-11-21T05:07:11.263Z,1004.59
2022-11-21T05:08:11.129Z,1004.65
2022-11-21T05:09:11.137Z,1004.65
2022-11-21T05:10:11.127Z,1004.49
2022-11-21T05:11:11.129Z,1004.4
2022-11-21T05:12:11.145Z,1004.42
2022-11-21T05:13:11.208Z,1004.48
2022-11-21T05:14:11.145Z,1004.53
2022-11-21T05:15:11.137Z,1004.54
2022-11-21T05:16:11.149Z,1004.48
2022-11-21T05:17:11.148Z,1004.42
2022-11-21T05:18:11.129Z,1004.44
2022-11-21T05:19:11.213Z,1004.37
2022-11-21T05:20:11.133Z,1004.38
2022-11-21T05:21:11.142Z,1004.35
2022-11-21T05:22:11.141Z,1004.42
2022-11-21T05:23:11.140Z,1004.4
2022-11-21T05:24:11.148Z,1004.38
2022-11-21T05:25:11.128Z,1004.22
2022-11-21T05:26:11.145Z,1004.28
2022-11-21T05:27:11.143Z,1004.26
2022-11-21T05:28:11.134Z,1004.24
2022-11-21T05:29:11.128Z,1004.23
2022-11-21T05:30:11.131Z,1004.22
2022-11-21T05:31:11.139Z,1004.26
2022-11-21T05:32:11.140Z,1004.1
2022-11-21T05:33:11.127Z,1004.09
2022-11-21T05:34:11.152Z,1004.16
2022-11-21T05:35:11.136Z,1004.13
2022-11-21T05:36:11.136Z,1004.08
2022-11-21T05:37:11.149Z,1004.15
2022-11-21T05:38:11.166Z,1004.15
2022-11-21T05:39:11.134Z,1004.17
2022-11-21T05:40:11.123Z,1004.17
2022-11-21T05:41:11.135Z,1004.06
2022-11-21T05:42:11.146Z,1004.08
2022-11-21T05:43:11.171Z,1004.08
2022-11-21T05:44:11.121Z,1004.11
2022-11-21T05:45:11.144Z,1004.04
2022-11-21T05:46:11.133Z,1004.07
2022-11-21T05:47:11.152Z,1004.1
2022-11-21T05:48:11.135Z,1004.12
2022-11-21T05:49:11.148Z,1004.09
2022-11-21T05:50:11.230Z,1004.03
2022-11-21T05:51:11.138Z,1004.04
2022-11-21T05:52:11.149Z,1003.99
2022-11-21T05:53:11.147Z,1004.05
2022-11-21T05:54:11.146Z,1003.99
2022-11-21T05:55:11.146Z,1003.99
2022-11-21T05:56:11.119Z,1003.97
2022-11-21T05:57:11.150Z,1003.96
2022-11-21T05:58:11.128Z,1003.96
2022-11-21T05:59:11.125Z,1003.92
2022-11-21T06:00:11.117Z,1003.94
2022-11-21T06:01:11.138Z,1003.93
2022-11-21T06:02:11.144Z,1003.97
2022-11-21T06:03:11.204Z,1004.05
2022-11-21T06:04:11.144Z,1004.01
2022-11-21T06:05:11.124Z,1004.02
2022-11-21T06:06:11.125Z,1004
2022-11-21T06:07:11.244Z,1003.97
2022-11-21T06:08:11.132Z,1003.94
2022-11-21T06:09:11.141Z,1003.95
2022-11-21T06:10:11.122Z,1003.97
2022-11-21T06:11:11.115Z,1003.94
2022-11-21T06:12:11.147Z,1003.99
2022-11-21T06:13:11.141Z,1004.01
2022-11-21T06:14:11.127Z,1004
2022-11-21T06:15:11.152Z,1004.04
2022-11-21T06:16:11.129Z,1004.06
2022-11-21T06:17:11.160Z,1004.13
2022-11-21T06:18:11.133Z,1004.12
2022-11-21T06:19:11.160Z,1004.15
2022-11-21T06:20:11.124Z,1004.11
2022-11-21T06:21:11.126Z,1004.13
2022-11-21T06:22:11.147Z,1004.12
2022-11-21T06:23:11.127Z,1004.02
2022-11-21T06:24:11.133Z,1004.04
2022-11-21T06:25:11.145Z,1004.11
2022-11-21T06:26:11.126Z,1004.07
2022-11-21T06:27:11.153Z,1004.09
2022-11-21T06:28:11.142Z,1003.99
2022-11-21T06:29:11.139Z,1003.97
2022-11-21T06:30:11.113Z,1003.96
2022-11-21T06:31:11.130Z,1003.95
2022-11-21T06:32:11.149Z,1004.06
2022-11-21T06:33:11.125Z,1004.01
2022-11-21T06:34:11.142Z,1004
2022-11-21T06:35:11.133Z,1004.03
2022-11-21T06:36:11.143Z,1004.1
2022-11-21T06:37:11.149Z,1004.06
2022-11-21T06:38:11.136Z,1004.08
2022-11-21T06:39:11.132Z,1004.03
2022-11-21T06:40:11.115Z,1004.09
2022-11-21T06:41:11.127Z,1004.08
2022-11-21T06:42:11.149Z,1004.1
2022-11-21T06:43:11.147Z,1004.04
2022-11-21T06:44:11.128Z,1004.08
2022-11-21T06:45:11.132Z,1004.03
2022-11-21T06:46:11.142Z,1004.03
2022-11-21T06:47:11.147Z,1004.1
2022-11-21T06:48:11.144Z,1004.1
2022-11-21T06:49:11.136Z,1004.18
2022-11-21T06:50:11.125Z,1004.15
2022-11-21T06:51:11.139Z,1004.16
2022-11-21T06:52:11.148Z,1004.1
2022-11-21T06:53:11.125Z,1004.05
2022-11-21T06:54:16.343Z,1004.07
2022-11-21T06:55:11.125Z,1004.08
2022-11-21T06:56:11.140Z,1004.04
2022-11-21T06:57:11.159Z,1004.03
2022-11-21T06:58:11.145Z,1004.03
2022-11-21T06:59:11.134Z,1004.06
2022-11-21T07:00:11.135Z,1004.11
2022-11-21T07:01:11.203Z,1004.11
2022-11-21T07:02:11.148Z,1004.08
2022-11-21T07:03:11.114Z,1004.13
2022-11-21T07:04:11.138Z,1004.13
2022-11-21T07:05:11.121Z,1004.09
2022-11-21T07:06:11.121Z,1004.08
2022-11-21T07:07:11.169Z,1004.09
2022-11-21T07:08:13.462Z,1004.08
2022-11-21T07:09:32.335Z,1004.13
2022-11-21T07:10:11.122Z,1004.11
2022-11-21T07:11:24.716Z,1004.13
2022-11-21T07:12:11.142Z,1004.15
2022-11-21T07:13:11.133Z,1004.04
2022-11-21T07:14:11.129Z,1004.01
2022-11-21T07:15:11.114Z,1004.05
2022-11-21T07:16:11.132Z,1004.02
2022-11-21T07:17:11.147Z,1003.99
2022-11-21T07:18:11.121Z,1004.05
2022-11-21T07:19:11.148Z,1004.03
2022-11-21T07:20:11.115Z,1004.07
2022-11-21T07:21:11.128Z,1004.06
2022-11-21T07:22:11.158Z,1004.08
2022-11-21T07:23:11.141Z,1004.13
2022-11-21T07:24:11.131Z,1004.11
2022-11-21T07:25:11.139Z,1004.1
2022-11-21T07:26:11.130Z,1004.12
2022-11-21T07:27:11.148Z,1004.15
2022-11-21T07:28:11.127Z,1004.16
2022-11-21T07:29:11.158Z,1004.2
2022-11-21T07:30:11.125Z,1004.15
2022-11-21T07:31:13.878Z,1004.16
2022-11-21T07:32:11.149Z,1004.22
2022-11-21T07:33:11.140Z,1004.16
2022-11-21T07:34:11.136Z,1004.19
2022-11-21T07:35:11.138Z,1004.19
2022-11-21T07:36:11.145Z,1004.21
2022-11-21T07:37:11.143Z,1004.18
2022-11-21T07:38:11.147Z,1004.22
2022-11-21T07:39:11.151Z,1004.19
2022-11-21T07:40:11.115Z,1004.16
2022-11-21T07:41:11.143Z,1004.15
2022-11-21T07:42:11.146Z,1004.13
2022-11-21T07:43:11.255Z,1004.19
2022-11-21T07:44:11.131Z,1004.12
2022-11-21T07:45:11.139Z,1004.16
2022-11-21T07:46:11.140Z,1004.13
2022-11-21T07:47:11.144Z,1004.12
2022-11-21T07:48:11.130Z,1004.14
2022-11-21T07:49:11.128Z,1004.15
2022-11-21T07:50:11.123Z,1004.13
2022-11-21T07:51:11.149Z,1004.14
2022-11-21T07:52:11.150Z,1004.16
2022-11-21T07:53:11.132Z,1004.2
2022-11-21T07:54:11.145Z,1004.21
2022-11-21T07:55:11.137Z,1004.13
2022-11-21T07:56:11.150Z,1004.23
2022-11-21T07:57:11.149Z,1004.28
2022-11-21T07:58:11.134Z,1004.24
2022-11-21T07:59:11.135Z,1004.29
2022-11-21T08:00:11.123Z,1004.25
2022-11-21T08:01:11.187Z,1004.26
2022-11-21T08:02:11.196Z,1004.22
2022-11-21T08:03:11.132Z,1004.23
2022-11-21T08:04:11.136Z,1004.25
2022-11-21T08:05:11.136Z,1004.25
2022-11-21T08:06:11.142Z,1004.26
2022-11-21T08:07:11.189Z,1004.32
2022-11-21T08:08:11.131Z,1004.31
2022-11-21T08:09:11.128Z,1004.31
2022-11-21T08:10:11.121Z,1004.39
2022-11-21T08:11:11.132Z,1004.42
2022-11-21T08:12:11.144Z,1004.51
2022-11-21T08:13:11.123Z,1004.51
2022-11-21T08:14:11.121Z,1004.56
2022-11-21T08:15:11.131Z,1004.56
2022-11-21T08:16:11.121Z,1004.59
2022-11-21T08:17:11.155Z,1004.56
2022-11-21T08:18:11.116Z,1004.58
2022-11-21T08:19:11.188Z,1004.56
2022-11-21T08:20:11.132Z,1004.57
2022-11-21T08:21:14.548Z,1004.66
2022-11-21T08:22:11.138Z,1004.72
2022-11-21T08:23:11.134Z,1004.68
2022-11-21T08:24:11.135Z,1004.64
2022-11-21T08:25:11.131Z,1004.65
2022-11-21T08:26:11.162Z,1004.6
2022-11-21T08:27:11.205Z,1004.63
2022-11-21T08:28:11.123Z,1004.72
2022-11-21T08:29:11.144Z,1004.77
2022-11-21T08:30:11.122Z,1004.77
2022-11-21T08:31:11.134Z,1004.79
2022-11-21T08:32:11.149Z,1004.83
2022-11-21T08:33:11.137Z,1004.8
2022-11-21T08:34:14.470Z,1004.84
2022-11-21T08:35:11.143Z,1004.8
2022-11-21T08:36:11.143Z,1004.88
2022-11-21T08:37:11.149Z,1004.94
2022-11-21T08:38:11.131Z,1004.96
2022-11-21T08:39:11.139Z,1004.99
2022-11-21T08:40:11.123Z,1004.96
2022-11-21T08:41:16.087Z,1004.94
2022-11-21T08:42:11.159Z,1004.95
2022-11-21T08:43:11.133Z,1004.99
2022-11-21T08:44:13.820Z,1004.95
2022-11-21T08:45:11.151Z,1005.06
2022-11-21T08:46:11.135Z,1005.06
2022-11-21T08:47:11.154Z,1005.11
2022-11-21T08:48:11.137Z,1005.1
2022-11-21T08:49:11.132Z,1005.13
2022-11-21T08:50:11.120Z,1005.15
2022-11-21T08:51:11.132Z,1005.14
2022-11-21T08:52:11.154Z,1005.11
2022-11-21T08:53:11.134Z,1005.19
2022-11-21T08:54:11.147Z,1005.21
2022-11-21T08:55:11.143Z,1005.2
2022-11-21T08:56:11.140Z,1005.21
2022-11-21T08:57:11.151Z,1005.22
2022-11-21T08:58:11.126Z,1005.25
2022-11-21T08:59:11.148Z,1005.27
2022-11-21T09:00:11.140Z,1005.27
2022-11-21T09:01:11.133Z,1005.29
2022-11-21T09:02:11.191Z,1005.26
2022-11-21T09:03:11.156Z,1005.32
2022-11-21T09:04:11.128Z,1005.33
2022-11-21T09:05:11.131Z,1005.4
2022-11-21T09:06:11.147Z,1005.39
2022-11-21T09:07:11.244Z,1005.41
2022-11-21T09:08:11.146Z,1005.41
2022-11-21T09:09:11.136Z,1005.39
2022-11-21T09:10:11.120Z,1005.39
2022-11-21T09:11:11.131Z,1005.48
2022-11-21T09:12:11.150Z,1005.55
2022-11-21T09:13:11.132Z,1005.52
2022-11-21T09:14:11.129Z,1005.54
2022-11-21T09:15:11.131Z,1005.6
2022-11-21T09:16:11.136Z,1005.59
2022-11-21T09:17:11.145Z,1005.63
2022-11-21T09:18:11.152Z,1005.73
2022-11-21T09:19:11.124Z,1005.71
2022-11-21T09:20:11.160Z,1005.72
2022-11-21T09:21:11.142Z,1005.84
2022-11-21T09:22:11.146Z,1005.83
2022-11-21T09:23:11.122Z,1005.87
2022-11-21T09:24:11.136Z,1005.85
2022-11-21T09:25:11.152Z,1005.89
2022-11-21T09:26:11.136Z,1005.89
2022-11-21T09:27:11.135Z,1005.92
2022-11-21T09:28:11.122Z,1005.98
2022-11-21T09:29:11.124Z,1006.04
2022-11-21T09:30:11.133Z,1006.08
2022-11-21T09:31:11.130Z,1006.08
2022-11-21T09:32:11.149Z,1006.11
2022-11-21T09:33:11.133Z,1006.14
2022-11-21T09:34:11.120Z,1006.17
2022-11-21T09:35:11.132Z,1006.15
2022-11-21T09:36:11.131Z,1006.16
2022-11-21T09:37:11.146Z,1006.14
2022-11-21T09:38:11.119Z,1006.17
2022-11-21T09:39:11.144Z,1006.22
2022-11-21T09:40:11.133Z,1006.24
2022-11-21T09:41:11.129Z,1006.19
2022-11-21T09:42:11.147Z,1006.15
2022-11-21T09:43:11.127Z,1006.27
2022-11-21T09:44:11.134Z,1006.27
2022-11-21T09:45:11.139Z,1006.27
2022-11-21T09:46:11.134Z,1006.29
2022-11-21T09:47:11.150Z,1006.28
2022-11-21T09:48:11.137Z,1006.34
2022-11-21T09:49:11.144Z,1006.32
2022-11-21T09:50:11.123Z,1006.36
2022-11-21T09:51:11.133Z,1006.38
2022-11-21T09:52:16.953Z,1006.38
2022-11-21T09:53:15.754Z,1006.39
2022-11-21T09:54:15.757Z,1006.42
2022-11-21T09:55:15.748Z,1006.44
2022-11-21T09:56:15.751Z,1006.39
2022-11-21T09:57:15.752Z,1006.45
2022-11-21T09:58:15.748Z,1006.43
2022-11-21T09:59:15.741Z,1006.48
2022-11-21T10:00:15.763Z,1006.55
2022-11-21T10:01:15.795Z,1006.51
2022-11-21T10:02:15.739Z,1006.53
2022-11-21T10:03:20.890Z,1006.53
2022-11-21T10:04:15.741Z,1006.64
2022-11-21T10:05:15.737Z,1006.67
2022-11-21T10:06:15.738Z,1006.64
2022-11-21T10:07:15.813Z,1006.68
2022-11-21T10:08:15.759Z,1006.67
2022-11-21T10:09:15.748Z,1006.68
2022-11-21T10:10:15.747Z,1006.74
2022-11-21T10:11:19.671Z,1006.73
2022-11-21T10:12:15.738Z,1006.74
2022-11-21T10:13:15.763Z,1006.76
2022-11-21T10:14:15.734Z,1006.77
2022-11-21T10:15:15.745Z,1006.83
2022-11-21T10:16:15.743Z,1006.85
2022-11-21T10:17:15.744Z,1006.83
2022-11-21T10:18:15.764Z,1006.85
2022-11-21T10:19:15.748Z,1006.86
2022-11-21T10:20:15.739Z,1006.9
2022-11-21T10:21:15.737Z,1006.93
2022-11-21T10:22:15.758Z,1006.96
2022-11-21T10:23:15.749Z,1006.95
2022-11-21T10:24:15.739Z,1006.99
2022-11-21T10:25:15.748Z,1006.94
2022-11-21T10:26:15.735Z,1006.94
2022-11-21T10:27:15.728Z,1006.89
2022-11-21T10:28:15.749Z,1007.03
2022-11-21T10:29:15.725Z,1006.91
2022-11-21T10:30:15.731Z,1006.94
2022-11-21T10:31:15.745Z,1006.88
2022-11-21T10:32:15.736Z,1006.85
2022-11-21T10:33:15.741Z,1006.92
2022-11-21T10:34:15.723Z,1006.95
2022-11-21T10:35:15.722Z,1006.96
2022-11-21T10:36:15.728Z,1006.9
2022-11-21T10:37:15.730Z,1006.91
2022-11-21T10:38:15.733Z,1007.01
2022-11-21T10:39:15.716Z,1006.92
2022-11-21T10:40:15.766Z,1007.03
2022-11-21T10:41:15.731Z,1007.03
2022-11-21T10:42:19.118Z,1007.07
2022-11-21T10:43:15.755Z,1007.06
2022-11-21T10:44:15.723Z,1007.11
2022-11-21T10:45:15.721Z,1007.16
2022-11-21T10:46:15.738Z,1007.21
2022-11-21T10:47:15.746Z,1007.12
2022-11-21T10:48:15.739Z,1007.12
2022-11-21T10:49:15.721Z,1007.06
2022-11-21T10:50:15.726Z,1007.17
2022-11-21T10:51:15.721Z,1007.14
2022-11-21T10:52:15.720Z,1007.16
2022-11-21T10:53:15.731Z,1007.15
2022-11-21T10:54:15.731Z,1007.17
2022-11-21T10:55:15.716Z,1007.16
2022-11-21T10:56:15.724Z,1007.18
2022-11-21T10:57:15.731Z,1007.17
2022-11-21T10:58:15.747Z,1007.22
2022-11-21T10:59:15.737Z,1007.24
2022-11-21T11:00:15.722Z,1007.18
2022-11-21T11:01:15.783Z,1007.3
2022-11-21T11:02:15.731Z,1007.27
2022-11-21T11:03:15.746Z,1007.32
2022-11-21T11:05:15.738Z,1007.33
2022-11-21T11:06:15.753Z,1007.36
2022-11-21T11:07:15.780Z,1007.32
2022-11-21T11:08:15.749Z,1007.34
2022-11-21T11:09:15.737Z,1007.3
2022-11-21T11:10:15.731Z,1007.38
2022-11-21T11:11:15.741Z,1007.35
2022-11-21T11:12:15.748Z,1007.44
2022-11-21T11:13:44.532Z,1007.47
2022-11-21T11:14:15.728Z,1007.51
2022-11-21T11:15:15.756Z,1007.54
2022-11-21T11:16:15.736Z,1007.51
2022-11-21T11:17:15.737Z,1007.55
2022-11-21T11:18:15.832Z,1007.56
2022-11-21T11:19:15.739Z,1007.59
2022-11-21T11:20:15.785Z,1007.53
2022-11-21T11:21:15.734Z,1007.58
2022-11-21T11:22:15.734Z,1007.71
2022-11-21T11:23:15.748Z,1007.69
2022-11-21T11:24:15.827Z,1007.68
2022-11-21T11:25:15.736Z,1007.73
2022-11-21T11:26:15.729Z,1007.81
2022-11-21T11:27:15.733Z,1007.77
2022-11-21T11:28:15.746Z,1007.82
2022-11-21T11:29:15.729Z,1007.83
2022-11-21T11:30:15.859Z,1007.84
2022-11-21T11:31:15.736Z,1007.8
2022-11-21T11:32:20.877Z,1007.76
2022-11-21T11:33:15.740Z,1007.76
2022-11-21T11:34:15.752Z,1007.78
2022-11-21T11:35:15.733Z,1007.84
2022-11-21T11:36:15.737Z,1007.8
2022-11-21T11:37:15.734Z,1007.79
2022-11-21T11:38:15.744Z,1007.81
2022-11-21T11:39:15.740Z,1007.85
2022-11-21T11:40:15.743Z,1007.81
2022-11-21T11:41:15.740Z,1007.77
2022-11-21T11:42:16.934Z,1007.73
2022-11-21T11:43:15.724Z,1007.76
2022-11-21T11:44:15.712Z,1007.76
2022-11-21T11:45:15.714Z,1007.73
2022-11-21T11:46:15.711Z,1007.76
2022-11-21T11:47:15.715Z,1007.77
2022-11-21T11:48:15.755Z,1007.75
2022-11-21T11:49:21.221Z,1007.7
2022-11-21T11:50:15.826Z,1007.67
2022-11-21T11:51:15.719Z,1007.7
2022-11-21T11:52:15.717Z,1007.65
2022-11-21T11:53:15.755Z,1007.73
2022-11-21T11:54:15.714Z,1007.78
2022-11-21T11:55:15.714Z,1007.82
2022-11-21T11:56:15.718Z,1007.84
2022-11-21T11:57:15.714Z,1007.84
2022-11-21T11:58:15.755Z,1007.9
2022-11-21T11:59:15.723Z,1007.9
2022-11-21T12:00:15.726Z,1007.87
2022-11-21T12:01:15.718Z,1007.87
2022-11-21T12:02:15.762Z,1007.93
2022-11-21T12:03:15.740Z,1007.89
2022-11-21T12:04:15.711Z,1007.91
2022-11-21T12:05:15.727Z,1007.86
2022-11-21T12:06:15.727Z,1007.86
2022-11-21T12:08:19.885Z,1007.93
2022-11-21T12:08:42.240Z,1007.95
2022-11-21T12:09:15.865Z,1007.95